WEI weather

Weipa Airport
Weipa, Queensland, Australia

Public forecast

Using degrees Celsius for public forecast. Weather courtesy of forecast.io.

Current aviation weather report (METAR) for Weipa Airport

Retrieved 2019/10/24 03:00 UTC (43 minutes ago):

YBWP 240300Z AUTO 09013KT 9999 // SCT049 SCT057 33/18 Q1010

Closest aviation forecast (TAF) to Weipa Airport

Closest forecast is Gove Airport, 300.4 nm (556.3 km) W. Retrieved 2019-10-24 02:00 UTC (2 hours ago):

TAF YPGV 240046Z 2402/2414 09014KT 9999 SCT025 FM240900 13005KT 9999 SCT020